Time;durP1;ratioP1;P1;durP2;ratioP2;P2;SDS_P1;SDS_P2;PMS_P1;PMS_P2;Temp;Humidity;BMP_temperature;BMP_pressure;BME280_temperature;BME280_humidity;BME280_pressure;Samples;Min_cycle;Max_cycle;Signal;HPM_P1;HPM_P2
2023/08/11 00:02:24;;;;;;;10.77;3.60;;;17.10;99.90;;;;;;4969134;28;20392;-68
2023/08/11 00:04:52;;;;;;;8.85;4.20;;;17.10;99.90;;;;;;4968907;28;20415;-68
2023/08/11 00:07:18;;;;;;;9.82;4.18;;;17.10;99.90;;;;;;4970129;28;20396;-68
2023/08/11 00:09:44;;;;;;;9.57;4.30;;;17.10;99.90;;;;;;4967431;28;20445;-68
2023/08/11 00:12:10;;;;;;;10.70;3.45;;;17.00;1.00;;;;;;4967675;28;20910;-68
2023/08/11 00:14:38;;;;;;;8.43;3.80;;;17.10;99.90;;;;;;4969445;28;20548;-68
2023/08/11 00:17:05;;;;;;;8.95;4.28;;;17.10;99.90;;;;;;4967641;28;20424;-68
2023/08/11 00:19:32;;;;;;;8.27;3.67;;;17.00;99.90;;;;;;4976318;28;21298;-68
2023/08/11 00:21:57;;;;;;;10.40;4.13;;;16.90;1.00;;;;;;4969348;28;20426;-68
2023/08/11 00:24:23;;;;;;;8.23;3.50;;;16.90;1.00;;;;;;4968390;28;20488;-68
2023/08/11 00:26:49;;;;;;;8.95;3.67;;;16.80;1.00;;;;;;4964926;28;20412;-69
2023/08/11 00:29:15;;;;;;;11.07;4.18;;;16.80;1.00;;;;;;4967501;28;20412;-69
2023/08/11 00:31:41;;;;;;;10.00;4.20;;;16.70;1.00;;;;;;4967999;28;20420;-68
2023/08/11 00:34:07;;;;;;;10.07;4.18;;;16.70;1.00;;;;;;4954817;28;20418;-69
2023/08/11 00:36:32;;;;;;;9.27;4.30;;;16.70;1.00;;;;;;4967415;28;20466;-69
2023/08/11 00:39:00;;;;;;;9.73;4.13;;;16.70;1.00;;;;;;4968127;28;20535;-69
2023/08/11 00:41:26;;;;;;;10.18;4.45;;;16.80;1.00;;;;;;4968537;28;20412;-68
2023/08/11 00:43:52;;;;;;;10.88;4.15;;;16.80;1.00;;;;;;4967599;28;20731;-69
2023/08/11 00:46:21;;;;;;;10.90;4.47;;;16.80;1.00;;;;;;4968097;28;20427;-67
2023/08/11 00:48:51;;;;;;;8.98;4.20;;;16.50;89.10;;;;;;4956425;28;20440;-67
2023/08/11 00:51:18;;;;;;;11.90;4.97;;;16.50;82.90;;;;;;4968651;28;20542;-68
2023/08/11 00:53:45;;;;;;;8.85;4.15;;;16.60;27.50;;;;;;4967811;28;20423;-68
2023/08/11 00:56:13;;;;;;;8.38;4.30;;;16.60;1.00;;;;;;4967845;28;20428;-68
2023/08/11 00:58:39;;;;;;;10.13;4.32;;;16.50;1.00;;;;;;4967449;28;21120;-68
2023/08/11 01:01:04;;;;;;;11.27;5.18;;;16.50;1.00;;;;;;4968504;28;20498;-68
2023/08/11 01:03:30;;;;;;;10.97;4.80;;;16.50;1.00;;;;;;4967492;28;20507;-68
2023/08/11 01:06:08;;;;;;;11.27;4.47;;;16.40;1.00;;;;;;4968055;28;20817;-68
2023/08/11 01:08:33;;;;;;;9.68;4.93;;;16.40;1.00;;;;;;4967276;28;20963;-68
2023/08/11 01:11:17;;;;;;;11.80;3.50;;;16.40;24.80;;;;;;4967419;28;20435;-68
2023/08/11 01:13:52;;;;;;;11.07;4.35;;;16.40;34.10;;;;;;4949411;28;20398;-68
2023/08/11 01:16:19;;;;;;;10.18;4.55;;;16.40;1.20;;;;;;4976344;28;20959;-68
2023/08/11 01:18:45;;;;;;;10.38;4.20;;;16.40;32.90;;;;;;4969907;28;20420;-68
2023/08/11 01:21:13;;;;;;;9.10;4.47;;;16.30;99.90;;;;;;4968429;28;20393;-68
2023/08/11 01:23:40;;;;;;;8.93;3.97;;;16.20;99.90;;;;;;4968267;28;20483;-68
2023/08/11 01:26:06;;;;;;;8.20;3.65;;;16.10;99.90;;;;;;4968419;28;20438;-68
2023/08/11 01:28:34;;;;;;;9.05;4.53;;;16.10;99.90;;;;;;4968733;28;20408;-68
2023/08/11 01:31:00;;;;;;;12.07;4.40;;;16.10;99.90;;;;;;4968221;28;20412;-68
2023/08/11 01:33:26;;;;;;;10.20;4.40;;;15.90;1.00;;;;;;4967791;28;20462;-68
2023/08/11 01:35:51;;;;;;;8.87;4.43;;;15.90;1.00;;;;;;4967118;28;20416;-68
2023/08/11 01:38:17;;;;;;;9.45;3.90;;;16.00;1.00;;;;;;4957062;28;20431;-68
2023/08/11 01:40:42;;;;;;;10.40;4.10;;;16.00;1.00;;;;;;4968166;28;20901;-68
2023/08/11 01:43:12;;;;;;;9.17;3.83;;;16.00;1.00;;;;;;4968377;28;20741;-68
2023/08/11 01:45:38;;;;;;;8.73;4.10;;;16.10;1.00;;;;;;4967460;28;20976;-68
2023/08/11 01:48:05;;;;;;;9.00;4.30;;;16.10;1.00;;;;;;4967600;28;21024;-68
2023/08/11 01:50:32;;;;;;;8.27;3.35;;;16.00;1.00;;;;;;4968304;28;20750;-69
2023/08/11 01:52:58;;;;;;;9.17;3.97;;;16.00;1.00;;;;;;4952604;28;20420;-68
2023/08/11 01:55:25;;;;;;;8.25;3.75;;;16.00;1.00;;;;;;4968251;28;20407;-68
2023/08/11 01:57:51;;;;;;;9.50;3.90;;;15.90;1.00;;;;;;4968304;28;20439;-68
2023/08/11 02:00:17;;;;;;;9.90;3.80;;;16.00;1.00;;;;;;4967904;28;20937;-68
2023/08/11 02:02:43;;;;;;;9.38;4.10;;;16.10;1.00;;;;;;4967511;28;20436;-68
2023/08/11 02:05:15;;;;;;;10.10;3.88;;;16.20;99.90;;;;;;4971294;28;20903;-68
2023/08/11 02:07:42;;;;;;;11.80;4.20;;;16.00;99.90;;;;;;4970404;28;21555;-68
2023/08/11 02:10:08;;;;;;;8.18;4.10;;;15.90;99.90;;;;;;4970736;28;20439;-68
2023/08/11 02:12:36;;;;;;;9.60;4.10;;;15.90;1.00;;;;;;4971354;28;20415;-68
2023/08/11 02:15:04;;;;;;;9.70;4.00;;;15.80;1.00;;;;;;4970514;28;20412;-68
2023/08/11 02:17:31;;;;;;;8.95;3.78;;;15.80;1.00;;;;;;4970744;28;20436;-68
2023/08/11 02:19:57;;;;;;;8.80;3.43;;;15.80;1.00;;;;;;4969189;28;20470;-68
2023/08/11 02:22:23;;;;;;;8.52;3.50;;;15.80;1.00;;;;;;4970386;28;20408;-69
2023/08/11 02:24:48;;;;;;;9.10;4.00;;;15.80;1.00;;;;;;4970979;28;20897;-68
2023/08/11 02:27:14;;;;;;;9.03;3.80;;;15.80;1.00;;;;;;4961806;28;20476;-68
2023/08/11 02:29:39;;;;;;;8.50;3.30;;;15.80;1.00;;;;;;4954594;28;20490;-68
2023/08/11 02:32:05;;;;;;;7.80;3.60;;;15.80;1.00;;;;;;4970502;28;20445;-68
2023/08/11 02:34:31;;;;;;;8.20;3.50;;;15.70;1.00;;;;;;4969563;28;20427;-68
2023/08/11 02:36:56;;;;;;;7.90;3.75;;;15.70;1.00;;;;;;4969287;28;20765;-68
2023/08/11 02:39:23;;;;;;;9.03;3.73;;;15.60;1.00;;;;;;4969658;28;20845;-68
2023/08/11 02:41:49;;;;;;;7.43;3.22;;;15.60;1.00;;;;;;4970001;28;20503;-68
2023/08/11 02:44:14;;;;;;;7.15;3.30;;;15.60;1.00;;;;;;4970301;28;20440;-68
2023/08/11 02:46:40;;;;;;;9.00;4.00;;;15.50;1.00;;;;;;4970711;28;20439;-68
2023/08/11 02:49:07;;;;;;;8.82;3.58;;;15.50;1.00;;;;;;4965707;28;20411;-68
2023/08/11 02:51:33;;;;;;;11.07;4.40;;;15.50;1.00;;;;;;4959119;28;20521;-68
2023/08/11 02:53:59;;;;;;;7.18;3.65;;;15.80;1.00;;;;;;4959921;28;20778;-69
2023/08/11 02:56:25;;;;;;;9.60;3.73;;;15.70;1.00;;;;;;4965251;28;20423;-68
2023/08/11 02:58:52;;;;;;;8.10;3.30;;;15.70;1.00;;;;;;4959251;28;20523;-68
2023/08/11 03:01:17;;;;;;;11.05;4.03;;;15.70;1.00;;;;;;4970522;28;20490;-68
2023/08/11 03:03:43;;;;;;;9.20;3.40;;;15.60;1.00;;;;;;4970229;28;20845;-68
2023/08/11 03:06:13;;;;;;;10.20;3.80;;;15.50;1.00;;;;;;4970028;28;20518;-68
2023/08/11 03:08:39;;;;;;;9.05;4.00;;;15.50;1.00;;;;;;4969894;28;20424;-68
2023/08/11 03:11:05;;;;;;;8.57;3.57;;;15.50;1.00;;;;;;4970116;28;20782;-68
2023/08/11 03:13:30;;;;;;;9.05;3.80;;;15.40;1.00;;;;;;4971051;28;20419;-68
2023/08/11 03:15:56;;;;;;;11.13;4.13;;;15.40;1.00;;;;;;4985763;28;20466;-68
2023/08/11 03:18:21;;;;;;;10.30;3.20;;;15.30;1.00;;;;;;4978356;28;20422;-68
2023/08/11 03:20:47;;;;;;;9.87;4.30;;;15.30;1.00;;;;;;4990321;28;20982;-68
2023/08/11 03:23:13;;;;;;;8.00;3.38;;;15.20;1.00;;;;;;4989798;28;20405;-68
2023/08/11 03:25:39;;;;;;;10.52;3.90;;;15.10;1.00;;;;;;4989699;28;20390;-68
2023/08/11 03:28:05;;;;;;;7.90;3.57;;;15.20;1.00;;;;;;4989472;28;20798;-68
2023/08/11 03:30:31;;;;;;;9.52;3.60;;;15.20;1.00;;;;;;4981077;28;20407;-68
2023/08/11 03:32:56;;;;;;;8.70;4.00;;;15.20;1.00;;;;;;4955869;28;20398;-68
2023/08/11 03:35:22;;;;;;;10.25;3.40;;;15.20;1.00;;;;;;4973445;28;20410;-68
2023/08/11 03:37:48;;;;;;;9.00;4.00;;;15.10;1.00;;;;;;4969781;28;20501;-68
2023/08/11 03:40:16;;;;;;;9.83;3.70;;;15.10;1.00;;;;;;4966865;28;20415;-68
2023/08/11 03:42:42;;;;;;;10.10;3.90;;;15.20;1.00;;;;;;4969158;28;20422;-68
2023/08/11 03:45:14;;;;;;;7.93;3.60;;;15.10;1.00;;;;;;4970054;28;20439;-68
2023/08/11 03:47:40;;;;;;;8.80;3.23;;;15.20;1.00;;;;;;4969208;28;20428;-68
2023/08/11 03:50:07;;;;;;;9.93;3.50;;;15.20;1.00;;;;;;4969118;28;20439;-68
2023/08/11 03:52:33;;;;;;;9.23;3.45;;;15.00;1.00;;;;;;4969030;28;20418;-68
2023/08/11 03:54:59;;;;;;;11.80;3.55;;;15.00;1.00;;;;;;4959269;28;20424;-68
2023/08/11 03:57:25;;;;;;;9.17;3.43;;;15.10;1.00;;;;;;4960237;28;20436;-68
2023/08/11 03:59:51;;;;;;;9.23;3.75;;;15.20;1.00;;;;;;4968247;28;20412;-68
2023/08/11 04:02:17;;;;;;;8.95;3.53;;;15.30;1.00;;;;;;4968913;28;20416;-68
2023/08/11 04:04:43;;;;;;;8.90;3.65;;;15.30;1.00;;;;;;4963294;28;20402;-68
2023/08/11 04:07:09;;;;;;;10.30;4.10;;;15.20;1.00;;;;;;4969054;28;20502;-68
2023/08/11 04:09:34;;;;;;;8.10;3.20;;;15.10;1.00;;;;;;4972023;28;20443;-74
2023/08/11 04:12:00;;;;;;;9.15;3.67;;;15.10;1.00;;;;;;4972946;28;20412;-74
2023/08/11 04:14:25;;;;;;;9.25;3.75;;;15.20;1.00;;;;;;4963360;28;20435;-75
2023/08/11 04:16:51;;;;;;;8.90;3.60;;;15.20;1.00;;;;;;4967833;28;20412;-74
2023/08/11 04:19:16;;;;;;;8.80;4.10;;;15.20;1.00;;;;;;4961759;28;20432;-74
2023/08/11 04:21:42;;;;;;;9.40;3.40;;;15.30;1.00;;;;;;4964752;28;20522;-74
2023/08/11 04:24:08;;;;;;;7.60;3.60;;;15.30;1.00;;;;;;4965347;28;20924;-74
2023/08/11 04:26:33;;;;;;;8.38;3.78;;;15.30;1.00;;;;;;4967774;28;20454;-73
2023/08/11 04:29:01;;;;;;;11.07;3.97;;;15.30;1.00;;;;;;4955515;28;20427;-74
2023/08/11 04:31:27;;;;;;;11.05;4.20;;;15.30;1.00;;;;;;4955719;28;20422;-74
2023/08/11 04:33:53;;;;;;;9.70;3.87;;;15.40;1.00;;;;;;4959950;28;20559;-74
2023/08/11 04:36:19;;;;;;;10.82;4.20;;;15.40;1.00;;;;;;4957007;28;20923;-74
2023/08/11 04:38:44;;;;;;;10.50;4.43;;;15.40;1.00;;;;;;4962199;28;20499;-73
2023/08/11 04:41:10;;;;;;;7.85;3.42;;;15.50;1.00;;;;;;4963426;28;20419;-74
2023/08/11 04:43:36;;;;;;;9.23;4.13;;;15.60;1.00;;;;;;4957890;28;20411;-73
2023/08/11 04:46:01;;;;;;;12.17;3.73;;;15.60;1.00;;;;;;4958259;28;20457;-73
2023/08/11 04:48:27;;;;;;;9.15;4.40;;;15.70;1.00;;;;;;4962944;28;20430;-68
2023/08/11 04:50:52;;;;;;;8.87;4.17;;;15.80;1.00;;;;;;4955940;28;20511;-68
2023/08/11 04:53:21;;;;;;;9.40;3.90;;;15.90;1.00;;;;;;4954228;28;20455;-67
2023/08/11 04:55:46;;;;;;;10.82;3.92;;;16.00;1.00;;;;;;4965832;28;20459;-67
2023/08/11 04:58:12;;;;;;;9.37;3.93;;;16.30;1.00;;;;;;4952120;28;20497;-68
2023/08/11 05:00:37;;;;;;;11.80;4.35;;;16.60;1.00;;;;;;4957370;28;20416;-67
2023/08/11 05:03:04;;;;;;;10.52;4.60;;;17.10;1.00;;;;;;4957664;28;20451;-67
2023/08/11 05:05:29;;;;;;;9.43;4.45;;;18.00;99.90;;;;;;4957139;28;20437;-68
2023/08/11 05:07:55;;;;;;;10.10;3.53;;;19.10;99.90;;;;;;4956522;28;20900;-68
2023/08/11 05:10:21;;;;;;;10.73;3.80;;;19.90;99.90;;;;;;4966709;28;20423;-68
2023/08/11 05:12:49;;;;;;;9.57;3.17;;;20.70;1.00;;;;;;4952419;28;20451;-68
2023/08/11 05:15:14;;;;;;;9.02;3.53;;;21.50;99.90;;;;;;4971597;28;20418;-68
2023/08/11 05:17:40;;;;;;;10.07;3.85;;;22.10;5.90;;;;;;4954527;28;20433;-68
2023/08/11 05:20:07;;;;;;;10.85;3.90;;;22.30;1.00;;;;;;4955170;28;20488;-68
2023/08/11 05:22:33;;;;;;;8.17;3.37;;;22.50;1.00;;;;;;4964362;28;20963;-68
2023/08/11 05:25:01;;;;;;;10.97;3.60;;;22.90;1.00;;;;;;4966157;28;20416;-68
2023/08/11 05:27:27;;;;;;;8.90;3.78;;;23.20;1.00;;;;;;4967230;28;20762;-68
2023/08/11 05:29:52;;;;;;;9.02;3.80;;;23.30;1.00;;;;;;4968441;28;20428;-68
2023/08/11 05:32:18;;;;;;;9.32;3.80;;;23.60;1.00;;;;;;4968846;28;20423;-68
2023/08/11 05:34:45;;;;;;;10.10;3.40;;;24.30;1.00;;;;;;4971916;28;20397;-68
2023/08/11 05:37:10;;;;;;;10.20;3.70;;;24.70;1.00;;;;;;4970331;28;20384;-69
2023/08/11 05:39:38;;;;;;;10.00;3.88;;;25.10;99.90;;;;;;4971275;28;20404;-69
2023/08/11 05:42:05;;;;;;;8.90;3.80;;;25.80;99.90;;;;;;4972167;28;20415;-69
2023/08/11 05:44:31;;;;;;;8.80;3.88;;;25.70;99.90;;;;;;4971198;28;20704;-68
2023/08/11 05:46:56;;;;;;;10.77;3.97;;;25.90;99.90;;;;;;4969791;28;22370;-68
2023/08/11 05:49:22;;;;;;;11.40;4.10;;;26.10;99.90;;;;;;4973240;28;20507;-68
2023/08/11 05:51:47;;;;;;;9.20;3.85;;;26.00;99.90;;;;;;4973771;28;20913;-68
2023/08/11 05:54:13;;;;;;;8.60;3.90;;;26.30;99.90;;;;;;4968500;28;20775;-68
2023/08/11 05:56:38;;;;;;;9.50;3.30;;;26.40;99.90;;;;;;4974573;28;21066;-68
2023/08/11 05:59:04;;;;;;;10.43;3.80;;;26.10;99.90;;;;;;4975376;28;20432;-68
2023/08/11 06:01:30;;;;;;;9.65;3.38;;;26.80;99.90;;;;;;4993780;28;20382;-68
2023/08/11 06:03:56;;;;;;;10.75;3.95;;;27.30;99.90;;;;;;4984106;28;20413;-68
2023/08/11 06:06:22;;;;;;;9.43;3.20;;;27.70;99.90;;;;;;4970855;28;20424;-68
2023/08/11 06:08:47;;;;;;;8.70;4.07;;;28.30;99.90;;;;;;4973044;28;20411;-68
2023/08/11 06:11:13;;;;;;;9.37;3.77;;;28.80;99.90;;;;;;4971223;28;20400;-68
2023/08/11 06:13:39;;;;;;;9.40;3.77;;;29.10;99.90;;;;;;4972415;28;20443;-69
2023/08/11 06:16:05;;;;;;;9.70;4.10;;;28.90;99.90;;;;;;4972284;28;20396;-68
2023/08/11 06:18:30;;;;;;;10.83;4.27;;;29.50;99.90;;;;;;4971823;28;20784;-68
2023/08/11 06:20:56;;;;;;;8.73;3.40;;;29.70;99.90;;;;;;4970903;28;20415;-68
2023/08/11 06:23:22;;;;;;;10.20;3.70;;;30.10;99.90;;;;;;4971926;28;20404;-68
2023/08/11 06:25:47;;;;;;;9.03;3.70;;;30.20;99.90;;;;;;4972556;28;20880;-68
2023/08/11 06:28:14;;;;;;;10.13;3.60;;;30.30;99.90;;;;;;4972032;28;20443;-69
2023/08/11 06:30:40;;;;;;;8.60;3.78;;;30.30;99.90;;;;;;4971148;28;20794;-69
2023/08/11 06:33:06;;;;;;;11.75;3.78;;;30.00;99.90;;;;;;4971315;28;20793;-69
2023/08/11 06:35:32;;;;;;;10.90;4.43;;;30.20;99.90;;;;;;4971633;28;20400;-69
2023/08/11 06:37:58;;;;;;;9.00;3.60;;;30.80;99.90;;;;;;4971335;28;20434;-69
2023/08/11 06:40:23;;;;;;;9.10;3.80;;;31.10;99.90;;;;;;4970849;28;20840;-69
2023/08/11 06:42:49;;;;;;;9.10;3.23;;;31.00;99.90;;;;;;4954407;28;20418;-69
2023/08/11 06:45:14;;;;;;;8.18;3.35;;;30.70;99.90;;;;;;4952076;29;20436;-69
2023/08/11 06:47:40;;;;;;;8.30;3.60;;;31.10;99.90;;;;;;4952314;29;20400;-69
2023/08/11 06:50:06;;;;;;;8.13;3.60;;;32.20;99.90;;;;;;4951215;28;20427;-70
2023/08/11 06:52:31;;;;;;;9.37;3.53;;;32.70;99.90;;;;;;4951811;29;20422;-70
2023/08/11 06:54:57;;;;;;;9.52;4.03;;;32.60;99.90;;;;;;4952519;29;20503;-70
2023/08/11 06:57:23;;;;;;;11.17;3.60;;;32.00;99.90;;;;;;4969387;28;20988;-69
2023/08/11 06:59:48;;;;;;;8.57;3.67;;;31.60;99.90;;;;;;4972067;28;20962;-69
2023/08/11 07:02:14;;;;;;;10.67;3.80;;;32.00;99.90;;;;;;4970965;28;20496;-69
2023/08/11 07:04:40;;;;;;;9.00;3.50;;;32.20;99.90;;;;;;4970429;28;20420;-69
2023/08/11 07:07:06;;;;;;;11.02;3.72;;;32.20;99.90;;;;;;4971370;28;20891;-69
2023/08/11 07:09:33;;;;;;;9.30;3.38;;;32.40;99.90;;;;;;4971094;28;20727;-69
2023/08/11 07:11:58;;;;;;;10.50;3.47;;;32.40;99.90;;;;;;4970235;28;20416;-69
2023/08/11 07:14:24;;;;;;;8.13;3.10;;;32.70;99.90;;;;;;4971428;28;20439;-70
2023/08/11 07:16:50;;;;;;;8.60;3.20;;;31.90;99.90;;;;;;4971447;28;20468;-70
2023/08/11 07:19:15;;;;;;;9.07;2.83;;;31.90;99.90;;;;;;4970281;28;20419;-69
2023/08/11 07:21:41;;;;;;;8.20;3.20;;;32.30;99.90;;;;;;4970985;28;20415;-70
2023/08/11 07:24:06;;;;;;;9.45;3.35;;;33.60;99.90;;;;;;4969225;28;20420;-70
2023/08/11 07:26:32;;;;;;;7.27;3.00;;;34.70;99.90;;;;;;4971040;28;20414;-70
2023/08/11 07:28:57;;;;;;;8.05;3.00;;;34.70;99.90;;;;;;4971284;28;20435;-70
2023/08/11 07:31:23;;;;;;;8.40;3.20;;;34.70;99.90;;;;;;4970679;28;20392;-70
2023/08/11 07:33:49;;;;;;;8.38;3.22;;;35.00;99.90;;;;;;4971435;28;20419;-70
2023/08/11 07:36:14;;;;;;;8.40;3.20;;;34.20;99.90;;;;;;4969703;28;20424;-70
2023/08/11 07:38:40;;;;;;;7.73;3.03;;;33.80;99.90;;;;;;4970609;28;20917;-70
2023/08/11 07:41:05;;;;;;;11.10;3.92;;;33.70;99.90;;;;;;4970729;28;20396;-69
2023/08/11 07:43:31;;;;;;;8.00;3.30;;;32.90;99.90;;;;;;4971081;28;20403;-69
2023/08/11 07:45:56;;;;;;;8.15;2.80;;;33.30;99.90;;;;;;4970227;28;20973;-70
2023/08/11 07:48:22;;;;;;;8.00;3.33;;;34.60;99.90;;;;;;4970521;28;20483;-70
2023/08/11 07:50:48;;;;;;;9.53;2.90;;;35.10;99.90;;;;;;4969011;28;20416;-69
2023/08/11 07:53:13;;;;;;;10.10;3.13;;;35.40;99.90;;;;;;4971205;28;20396;-69
2023/08/11 07:55:40;;;;;;;8.70;3.90;;;35.50;99.90;;;;;;4970830;28;20774;-69
2023/08/11 07:58:06;;;;;;;8.90;3.90;;;35.90;99.90;;;;;;4970369;28;20789;-70
2023/08/11 08:00:32;;;;;;;7.70;2.80;;;35.70;99.90;;;;;;4968556;28;20416;-70
2023/08/11 08:02:57;;;;;;;7.95;2.90;;;36.20;99.90;;;;;;4969494;28;21107;-70
2023/08/11 08:05:23;;;;;;;8.33;3.50;;;36.60;99.90;;;;;;4969459;28;20443;-70
2023/08/11 08:07:49;;;;;;;7.23;3.20;;;36.10;99.90;;;;;;4951647;28;20406;-70
2023/08/11 08:10:15;;;;;;;8.20;3.00;;;36.40;99.90;;;;;;4952129;28;20419;-70
2023/08/11 08:12:44;;;;;;;7.22;3.33;;;36.20;99.90;;;;;;4951511;28;20522;-70
2023/08/11 08:15:10;;;;;;;7.10;3.10;;;36.50;99.90;;;;;;4968235;28;20436;-69
2023/08/11 08:17:37;;;;;;;7.55;3.08;;;36.60;99.90;;;;;;4961518;28;20433;-70
2023/08/11 08:20:08;;;;;;;9.20;3.28;;;37.10;99.90;;;;;;4954853;28;20409;-70
2023/08/11 08:22:33;;;;;;;10.40;3.00;;;37.60;99.90;;;;;;4950836;28;20414;-70
2023/08/11 08:25:06;;;;;;;7.60;3.10;;;37.90;99.90;;;;;;4960520;28;20427;-70
2023/08/11 08:27:40;;;;;;;7.88;2.85;;;37.20;99.90;;;;;;4969745;28;20404;-70
2023/08/11 08:30:10;;;;;;;8.70;2.70;;;35.80;99.90;;;;;;4967665;28;20481;-70
2023/08/11 08:32:38;;;;;;;9.73;3.10;;;35.60;99.90;;;;;;4962287;28;20418;-69
2023/08/11 08:35:04;;;;;;;8.27;3.22;;;36.70;99.90;;;;;;4950779;28;20786;-70
2023/08/11 08:37:31;;;;;;;6.68;2.17;;;37.90;99.90;;;;;;4967079;28;20435;-70
2023/08/11 08:39:57;;;;;;;7.20;2.80;;;;;;;;;;4968272;28;20404;-70
2023/08/11 08:42:26;;;;;;;6.18;2.30;;;38.30;99.90;;;;;;4969607;28;20495;-70
2023/08/11 08:44:52;;;;;;;6.20;2.40;;;;;;;;;;4968474;28;20416;-70
2023/08/11 08:47:20;;;;;;;6.95;2.35;;;36.90;99.90;;;;;;4969550;28;20761;-70
2023/08/11 08:49:46;;;;;;;7.03;2.67;;;;;;;;;;4969710;28;20380;-70
2023/08/11 08:52:12;;;;;;;10.05;2.80;;;;;;;;;;4969821;28;20751;-70
2023/08/11 08:54:40;;;;;;;7.10;2.60;;;37.80;41.60;;;;;;4969547;28;20388;-70
2023/08/11 08:57:09;;;;;;;7.72;2.30;;;38.20;1.00;;;;;;4969418;28;20399;-70
2023/08/11 08:59:39;;;;;;;6.50;2.70;;;39.00;1.00;;;;;;4969420;28;20551;-70
2023/08/11 09:02:06;;;;;;;6.90;2.33;;;39.20;1.00;;;;;;4964723;28;20427;-70
2023/08/11 09:04:33;;;;;;;6.70;2.30;;;39.40;1.00;;;;;;4950149;28;20413;-70
2023/08/11 09:07:00;;;;;;;6.80;2.40;;;39.50;1.00;;;;;;4950467;29;20404;-70
2023/08/11 09:09:30;;;;;;;6.53;2.13;;;39.70;1.00;;;;;;4964972;28;20817;-70
2023/08/11 09:11:56;;;;;;;6.70;2.35;;;39.40;1.00;;;;;;4968433;28;20699;-70
2023/08/11 09:14:22;;;;;;;6.70;2.60;;;39.70;99.90;;;;;;4967669;28;20443;-70
2023/08/11 09:16:52;;;;;;;6.93;2.50;;;38.90;99.90;;;;;;4973863;28;20419;-70
2023/08/11 09:19:19;;;;;;;7.00;2.80;;;39.10;1.00;;;;;;4974005;28;20423;-70
2023/08/11 09:21:45;;;;;;;6.50;2.50;;;39.30;1.00;;;;;;4973635;28;20400;-70
2023/08/11 09:24:12;;;;;;;6.70;2.70;;;39.30;1.00;;;;;;4972207;28;20809;-70
2023/08/11 09:26:38;;;;;;;7.70;3.10;;;39.60;1.00;;;;;;4973481;28;20459;-70
2023/08/11 09:29:04;;;;;;;7.55;3.10;;;40.10;1.00;;;;;;4973666;28;20976;-70
2023/08/11 09:31:30;;;;;;;8.20;2.50;;;40.60;1.00;;;;;;4973226;28;20404;-68
2023/08/11 09:33:56;;;;;;;8.30;2.58;;;40.40;1.00;;;;;;4973092;28;20392;-68
2023/08/11 09:36:21;;;;;;;8.03;3.20;;;41.00;1.00;;;;;;4973232;28;20384;-69
2023/08/11 09:38:48;;;;;;;6.50;2.50;;;39.80;1.00;;;;;;4970613;28;20906;-69
2023/08/11 09:41:16;;;;;;;7.47;2.95;;;39.60;1.00;;;;;;4967016;28;20446;-69
2023/08/11 09:43:47;;;;;;;7.50;2.80;;;40.90;1.00;;;;;;4971482;28;20451;-69
2023/08/11 09:46:13;;;;;;;6.93;2.40;;;41.60;1.00;;;;;;4973953;28;20443;-69
2023/08/11 09:48:38;;;;;;;6.40;2.60;;;41.70;1.00;;;;;;4954302;28;20988;-69
2023/08/11 09:51:10;;;;;;;6.60;2.40;;;41.80;1.00;;;;;;4953268;29;21183;-69
2023/08/11 09:53:38;;;;;;;7.53;2.90;;;40.80;1.00;;;;;;4962923;28;20422;-69
2023/08/11 09:56:05;;;;;;;6.65;2.90;;;40.50;1.00;;;;;;4970081;28;20446;-69
2023/08/11 09:58:34;;;;;;;8.10;3.30;;;40.80;1.00;;;;;;4971146;28;20428;-69
2023/08/11 10:01:00;;;;;;;8.25;2.70;;;41.40;1.00;;;;;;4971569;28;20430;-69
2023/08/11 10:03:32;;;;;;;7.67;3.00;;;40.60;1.00;;;;;;4972595;28;20400;-69
2023/08/11 10:06:01;;;;;;;8.10;3.10;;;39.90;1.00;;;;;;4973010;28;20392;-69
2023/08/11 10:08:30;;;;;;;8.20;2.90;;;39.00;1.00;;;;;;4971604;28;20415;-69
2023/08/11 10:10:55;;;;;;;8.05;2.53;;;38.00;99.90;;;;;;4972700;28;20407;-69
2023/08/11 10:13:26;;;;;;;7.70;3.55;;;37.00;99.90;;;;;;4972650;28;20904;-69
2023/08/11 10:15:53;;;;;;;7.10;2.95;;;36.20;1.00;;;;;;4972431;28;20387;-69
2023/08/11 10:18:20;;;;;;;7.63;3.20;;;36.40;1.00;;;;;;4972921;28;20436;-69
2023/08/11 10:20:49;;;;;;;7.82;3.05;;;36.80;1.00;;;;;;4972600;28;20458;-69
2023/08/11 10:23:17;;;;;;;7.80;3.30;;;36.00;1.00;;;;;;4971967;28;20408;-72
2023/08/11 10:25:44;;;;;;;7.78;3.00;;;36.50;1.00;;;;;;4972528;28;20408;-69
2023/08/11 10:28:12;;;;;;;8.35;3.10;;;37.40;1.00;;;;;;4970508;28;20412;-69
2023/08/11 10:30:38;;;;;;;6.93;2.60;;;38.10;1.00;;;;;;4971277;28;20479;-69
2023/08/11 10:33:08;;;;;;;7.03;3.00;;;39.10;1.00;;;;;;4972086;28;20809;-69
2023/08/11 10:35:54;;;;;;;8.07;2.70;;;39.20;1.00;;;;;;4971717;28;20468;-69
2023/08/11 10:38:37;;;;;;;9.20;3.20;;;38.40;1.00;;;;;;4972647;28;20529;-69
2023/08/11 10:41:08;;;;;;;6.30;2.60;;;37.60;99.90;;;;;;4972338;28;20463;-69
2023/08/11 10:43:40;;;;;;;6.90;2.90;;;36.70;99.90;;;;;;4972340;28;20841;-69
2023/08/11 10:46:22;;;;;;;8.00;3.20;;;36.00;99.90;;;;;;4991262;28;20481;-68
2023/08/11 10:48:49;;;;;;;8.30;2.97;;;35.10;99.90;;;;;;4980855;28;20446;-67
2023/08/11 10:51:34;;;;;;;8.13;3.05;;;34.60;99.90;;;;;;4971608;28;20423;-68
2023/08/11 10:54:05;;;;;;;7.97;2.55;;;34.70;99.90;;;;;;4971731;28;20404;-68
2023/08/11 10:56:32;;;;;;;7.07;2.35;;;34.40;99.90;;;;;;4971724;28;20437;-68
2023/08/11 10:59:21;;;;;;;7.10;2.58;;;34.10;99.90;;;;;;4971276;28;20431;-68
2023/08/11 11:01:49;;;;;;;8.30;2.65;;;33.90;99.90;;;;;;4959226;28;20492;-68
2023/08/11 11:04:17;;;;;;;7.57;2.60;;;33.50;99.90;;;;;;4952303;29;20879;-68
2023/08/11 11:06:46;;;;;;;8.80;3.30;;;33.30;99.90;;;;;;4952126;29;20398;-68
2023/08/11 11:09:13;;;;;;;7.13;2.70;;;33.40;99.90;;;;;;4952330;29;20397;-68
2023/08/11 11:11:39;;;;;;;7.93;3.50;;;33.90;99.90;;;;;;4952881;28;20406;-68
2023/08/11 11:14:09;;;;;;;8.40;2.97;;;33.70;99.90;;;;;;4961115;28;20487;-68
2023/08/11 11:16:36;;;;;;;7.10;2.85;;;33.00;99.90;;;;;;4971601;28;20897;-68
2023/08/11 11:19:03;;;;;;;7.55;2.30;;;32.80;99.90;;;;;;4971059;28;20439;-68
2023/08/11 11:21:30;;;;;;;7.80;2.88;;;32.60;99.90;;;;;;4971137;28;20943;-67
2023/08/11 11:23:56;;;;;;;7.80;3.30;;;32.80;99.90;;;;;;4971160;28;20758;-68
2023/08/11 11:26:23;;;;;;;9.70;2.60;;;33.30;99.90;;;;;;4970977;28;20899;-68
2023/08/11 11:28:50;;;;;;;7.00;2.53;;;33.40;99.90;;;;;;4965292;28;20394;-68
2023/08/11 11:31:16;;;;;;;7.40;2.63;;;33.30;99.90;;;;;;4971134;28;20727;-68
2023/08/11 11:33:42;;;;;;;8.00;2.58;;;33.00;99.90;;;;;;4970941;28;20952;-68
2023/08/11 11:36:08;;;;;;;7.15;2.80;;;33.00;99.90;;;;;;4970336;28;20400;-68
2023/08/11 11:38:34;;;;;;;10.83;3.00;;;32.90;99.90;;;;;;4969521;28;20436;-68
2023/08/11 11:40:59;;;;;;;7.37;2.80;;;33.20;99.90;;;;;;4970444;28;20404;-68
2023/08/11 11:43:25;;;;;;;6.47;2.10;;;33.20;99.90;;;;;;4957529;28;20756;-68
2023/08/11 11:45:52;;;;;;;7.70;3.30;;;33.30;99.90;;;;;;4961558;28;20411;-68
2023/08/11 11:48:24;;;;;;;6.68;2.20;;;33.10;99.90;;;;;;4968671;28;20933;-68
2023/08/11 11:50:50;;;;;;;7.20;2.50;;;33.30;99.90;;;;;;4968736;28;20450;-69
2023/08/11 11:53:16;;;;;;;6.28;2.10;;;33.10;99.90;;;;;;4969331;28;20969;-68
2023/08/11 11:55:46;;;;;;;7.50;2.50;;;33.20;99.90;;;;;;4968443;28;20825;-68
2023/08/11 11:58:14;;;;;;;7.20;2.30;;;33.10;99.90;;;;;;4970310;28;20428;-68
2023/08/11 12:00:40;;;;;;;8.30;2.50;;;32.80;99.90;;;;;;4970475;28;20404;-68
2023/08/11 12:03:07;;;;;;;6.22;2.20;;;32.70;99.90;;;;;;4968830;28;20492;-68
2023/08/11 12:05:33;;;;;;;6.90;2.20;;;33.00;99.90;;;;;;4968889;28;20920;-68
2023/08/11 12:07:58;;;;;;;6.78;2.33;;;33.20;99.90;;;;;;4970069;28;20694;-68
2023/08/11 12:10:31;;;;;;;7.38;2.33;;;33.50;99.90;;;;;;4970210;28;20392;-68
2023/08/11 12:13:03;;;;;;;7.35;2.60;;;33.60;99.90;;;;;;4970209;28;20928;-68
2023/08/11 12:15:28;;;;;;;6.55;2.17;;;33.50;99.90;;;;;;4968588;28;20420;-68
2023/08/11 12:17:55;;;;;;;7.10;2.40;;;33.70;99.90;;;;;;4969446;28;20487;-68
2023/08/11 12:20:22;;;;;;;6.88;2.40;;;33.50;99.90;;;;;;4970121;28;20957;-68
2023/08/11 12:22:48;;;;;;;7.38;2.50;;;33.30;99.90;;;;;;4969977;28;20503;-68
2023/08/11 12:25:13;;;;;;;9.20;2.83;;;33.20;99.90;;;;;;4969343;28;20555;-68
2023/08/11 12:27:40;;;;;;;8.38;2.42;;;33.30;99.90;;;;;;4969669;28;20452;-68
2023/08/11 12:30:06;;;;;;;7.00;3.00;;;33.50;99.90;;;;;;4969503;28;20397;-68
2023/08/11 12:32:32;;;;;;;8.85;2.58;;;33.70;99.90;;;;;;4969221;28;20746;-68
2023/08/11 12:34:58;;;;;;;6.20;2.00;;;33.30;99.90;;;;;;4969532;28;20522;-68
2023/08/11 12:37:26;;;;;;;8.30;2.40;;;33.40;99.90;;;;;;4969591;28;20435;-68
2023/08/11 12:39:51;;;;;;;8.05;2.65;;;33.30;99.90;;;;;;4969053;28;20397;-68
2023/08/11 12:42:17;;;;;;;7.10;2.40;;;33.60;99.90;;;;;;4969919;28;20422;-68
2023/08/11 12:44:42;;;;;;;6.43;2.10;;;33.80;99.90;;;;;;4989434;28;20466;-68
2023/08/11 12:47:08;;;;;;;6.53;2.17;;;33.20;99.90;;;;;;4982043;28;20400;-67
2023/08/11 12:49:33;;;;;;;7.68;2.80;;;33.10;99.90;;;;;;4969142;28;20454;-68